sensor_id;sensor_type;location;lat;lon;timestamp;temperature;humidity
66343;DHT22;53144;51.524;5.080;2023-02-28T00:00:11;0.80;81.56
66343;DHT22;53144;51.524;5.080;2023-02-28T00:02:42;0.88;81.38
66343;DHT22;53144;51.524;5.080;2023-02-28T00:05:09;0.88;81.50
66343;DHT22;53144;51.524;5.080;2023-02-28T00:07:35;0.85;81.63
66343;DHT22;53144;51.524;5.080;2023-02-28T00:10:01;0.79;81.95
66343;DHT22;53144;51.524;5.080;2023-02-28T00:12:27;0.80;81.92
66343;DHT22;53144;51.524;5.080;2023-02-28T00:14:52;0.87;81.81
66343;DHT22;53144;51.524;5.080;2023-02-28T00:17:18;0.79;81.94
66343;DHT22;53144;51.524;5.080;2023-02-28T00:19:47;0.79;81.99
66343;DHT22;53144;51.524;5.080;2023-02-28T00:22:13;0.76;82.27
66343;DHT22;53144;51.524;5.080;2023-02-28T00:24:39;0.69;82.31
66343;DHT22;53144;51.524;5.080;2023-02-28T00:27:04;0.66;82.48
66343;DHT22;53144;51.524;5.080;2023-02-28T00:29:29;0.64;82.76
66343;DHT22;53144;51.524;5.080;2023-02-28T00:31:55;0.50;82.97
66343;DHT22;53144;51.524;5.080;2023-02-28T00:34:20;0.49;83.09
66343;DHT22;53144;51.524;5.080;2023-02-28T00:36:45;0.56;82.68
66343;DHT22;53144;51.524;5.080;2023-02-28T00:39:14;0.56;82.85
66343;DHT22;53144;51.524;5.080;2023-02-28T00:41:39;0.53;82.94
66343;DHT22;53144;51.524;5.080;2023-02-28T00:44:05;0.48;83.18
66343;DHT22;53144;51.524;5.080;2023-02-28T00:46:30;0.52;83.02
66343;DHT22;53144;51.524;5.080;2023-02-28T00:48:55;0.45;83.29
66343;DHT22;53144;51.524;5.080;2023-02-28T00:51:21;0.42;83.37
66343;DHT22;53144;51.524;5.080;2023-02-28T00:53:46;0.38;83.58
66343;DHT22;53144;51.524;5.080;2023-02-28T00:56:11;0.32;83.85
66343;DHT22;53144;51.524;5.080;2023-02-28T00:58:37;0.28;83.78
66343;DHT22;53144;51.524;5.080;2023-02-28T01:01:02;0.23;84.14
66343;DHT22;53144;51.524;5.080;2023-02-28T01:03:28;0.12;83.89
66343;DHT22;53144;51.524;5.080;2023-02-28T01:05:53;0.06;84.37
66343;DHT22;53144;51.524;5.080;2023-02-28T01:08:19;0.20;84.44
66343;DHT22;53144;51.524;5.080;2023-02-28T01:10:44;0.22;84.32
66343;DHT22;53144;51.524;5.080;2023-02-28T01:13:11;0.12;84.43
66343;DHT22;53144;51.524;5.080;2023-02-28T01:15:37;0.20;84.52
66343;DHT22;53144;51.524;5.080;2023-02-28T01:18:03;0.22;84.31
66343;DHT22;53144;51.524;5.080;2023-02-28T01:20:28;0.28;84.36
66343;DHT22;53144;51.524;5.080;2023-02-28T01:22:53;0.20;84.34
66343;DHT22;53144;51.524;5.080;2023-02-28T01:25:19;0.18;84.44
66343;DHT22;53144;51.524;5.080;2023-02-28T01:27:44;0.13;84.47
66343;DHT22;53144;51.524;5.080;2023-02-28T01:30:10;0.15;84.53
66343;DHT22;53144;51.524;5.080;2023-02-28T01:32:36;0.16;84.74
66343;DHT22;53144;51.524;5.080;2023-02-28T01:35:01;0.18;84.91
66343;DHT22;53144;51.524;5.080;2023-02-28T01:37:27;0.15;85.06
66343;DHT22;53144;51.524;5.080;2023-02-28T01:39:53;0.09;85.13
66343;DHT22;53144;51.524;5.080;2023-02-28T01:42:18;0.09;84.91
66343;DHT22;53144;51.524;5.080;2023-02-28T01:47:40;-0.09;85.25
66343;DHT22;53144;51.524;5.080;2023-02-28T01:50:18;-0.26;85.62
66343;DHT22;53144;51.524;5.080;2023-02-28T01:52:45;-0.37;85.96
66343;DHT22;53144;51.524;5.080;2023-02-28T01:55:12;-0.46;86.35
66343;DHT22;53144;51.524;5.080;2023-02-28T01:57:38;-0.54;86.59
66343;DHT22;53144;51.524;5.080;2023-02-28T02:00:16;-0.52;86.68
66343;DHT22;53144;51.524;5.080;2023-02-28T02:02:43;-0.53;86.93
66343;DHT22;53144;51.524;5.080;2023-02-28T02:05:14;-0.53;86.77
66343;DHT22;53144;51.524;5.080;2023-02-28T02:07:43;-0.54;87.05
66343;DHT22;53144;51.524;5.080;2023-02-28T02:10:21;-0.53;87.21
66343;DHT22;53144;51.524;5.080;2023-02-28T02:13:08;-0.53;87.24
66343;DHT22;53144;51.524;5.080;2023-02-28T02:18:30;-0.30;87.01
66343;DHT22;53144;51.524;5.080;2023-02-28T02:37:21;0.60;84.71
66343;DHT22;53144;51.524;5.080;2023-02-28T02:39:50;0.63;84.40
66343;DHT22;53144;51.524;5.080;2023-02-28T02:42:32;0.69;84.51
66343;DHT22;53144;51.524;5.080;2023-02-28T02:45:06;0.80;83.86
66343;DHT22;53144;51.524;5.080;2023-02-28T02:47:33;0.90;84.04
66343;DHT22;53144;51.524;5.080;2023-02-28T02:50:05;0.85;83.52
66343;DHT22;53144;51.524;5.080;2023-02-28T02:52:37;0.95;83.40
66343;DHT22;53144;51.524;5.080;2023-02-28T02:55:04;0.92;83.15
66343;DHT22;53144;51.524;5.080;2023-02-28T02:57:35;1.01;83.49
66343;DHT22;53144;51.524;5.080;2023-02-28T03:00:04;0.95;83.33
66343;DHT22;53144;51.524;5.080;2023-02-28T03:02:35;1.01;82.65
66343;DHT22;53144;51.524;5.080;2023-02-28T03:05:06;1.02;82.59
66343;DHT22;53144;51.524;5.080;2023-02-28T03:07:33;1.05;82.73
66343;DHT22;53144;51.524;5.080;2023-02-28T03:09:59;1.09;82.10
66343;DHT22;53144;51.524;5.080;2023-02-28T03:12:33;1.11;81.99
66343;DHT22;53144;51.524;5.080;2023-02-28T03:15:07;1.09;82.23
66343;DHT22;53144;51.524;5.080;2023-02-28T03:17:47;1.12;81.99
66343;DHT22;53144;51.524;5.080;2023-02-28T03:26:04;1.21;81.36
66343;DHT22;53144;51.524;5.080;2023-02-28T03:31:20;1.29;81.22
66343;DHT22;53144;51.524;5.080;2023-02-28T03:33:47;1.39;80.78
66343;DHT22;53144;51.524;5.080;2023-02-28T03:36:29;1.31;80.81
66343;DHT22;53144;51.524;5.080;2023-02-28T03:39:00;1.36;80.71
66343;DHT22;53144;51.524;5.080;2023-02-28T03:41:46;1.38;80.28
66343;DHT22;53144;51.524;5.080;2023-02-28T03:44:22;1.45;79.77
66343;DHT22;53144;51.524;5.080;2023-02-28T03:46:56;1.45;79.57
66343;DHT22;53144;51.524;5.080;2023-02-28T03:49:28;1.50;79.12
66343;DHT22;53144;51.524;5.080;2023-02-28T03:51:59;1.55;79.41
66343;DHT22;53144;51.524;5.080;2023-02-28T03:54:31;1.59;79.36
66343;DHT22;53144;51.524;5.080;2023-02-28T03:57:05;1.58;78.95
66343;DHT22;53144;51.524;5.080;2023-02-28T03:59:37;1.55;79.20
66343;DHT22;53144;51.524;5.080;2023-02-28T04:02:03;1.58;79.45
66343;DHT22;53144;51.524;5.080;2023-02-28T04:04:28;1.53;78.67
66343;DHT22;53144;51.524;5.080;2023-02-28T04:07:02;1.55;78.89
66343;DHT22;53144;51.524;5.080;2023-02-28T04:09:28;1.64;78.88
66343;DHT22;53144;51.524;5.080;2023-02-28T04:11:53;1.60;79.10
66343;DHT22;53144;51.524;5.080;2023-02-28T04:14:21;1.63;78.93
66343;DHT22;53144;51.524;5.080;2023-02-28T04:16:46;1.59;78.88
66343;DHT22;53144;51.524;5.080;2023-02-28T04:19:12;1.64;78.46
66343;DHT22;53144;51.524;5.080;2023-02-28T04:21:39;1.59;78.33
66343;DHT22;53144;51.524;5.080;2023-02-28T04:24:05;1.64;78.51
66343;DHT22;53144;51.524;5.080;2023-02-28T04:26:36;1.62;78.17
66343;DHT22;53144;51.524;5.080;2023-02-28T04:29:04;1.67;78.45
66343;DHT22;53144;51.524;5.080;2023-02-28T04:31:30;1.67;78.01
66343;DHT22;53144;51.524;5.080;2023-02-28T04:33:56;1.67;77.52
66343;DHT22;53144;51.524;5.080;2023-02-28T04:36:22;1.67;77.93
66343;DHT22;53144;51.524;5.080;2023-02-28T04:38:48;1.66;77.49
66343;DHT22;53144;51.524;5.080;2023-02-28T04:41:14;1.64;77.33
66343;DHT22;53144;51.524;5.080;2023-02-28T04:43:40;1.70;77.52
66343;DHT22;53144;51.524;5.080;2023-02-28T04:46:05;1.63;77.90
66343;DHT22;53144;51.524;5.080;2023-02-28T04:48:34;1.63;78.02
66343;DHT22;53144;51.524;5.080;2023-02-28T04:51:02;1.64;77.76
66343;DHT22;53144;51.524;5.080;2023-02-28T04:53:28;1.64;77.84
66343;DHT22;53144;51.524;5.080;2023-02-28T04:55:54;1.64;77.40
66343;DHT22;53144;51.524;5.080;2023-02-28T04:58:19;1.69;77.71
66343;DHT22;53144;51.524;5.080;2023-02-28T05:00:47;1.63;78.54
66343;DHT22;53144;51.524;5.080;2023-02-28T05:03:12;1.67;77.99
66343;DHT22;53144;51.524;5.080;2023-02-28T05:05:38;1.70;77.74
66343;DHT22;53144;51.524;5.080;2023-02-28T05:08:03;1.62;77.74
66343;DHT22;53144;51.524;5.080;2023-02-28T05:10:30;1.62;78.25
66343;DHT22;53144;51.524;5.080;2023-02-28T05:12:56;1.64;77.63
66343;DHT22;53144;51.524;5.080;2023-02-28T05:15:21;1.67;78.30
66343;DHT22;53144;51.524;5.080;2023-02-28T05:17:46;1.66;77.82
66343;DHT22;53144;51.524;5.080;2023-02-28T05:20:12;1.64;78.37
66343;DHT22;53144;51.524;5.080;2023-02-28T05:22:39;1.59;77.81
66343;DHT22;53144;51.524;5.080;2023-02-28T05:25:04;1.59;77.99
66343;DHT22;53144;51.524;5.080;2023-02-28T05:27:30;1.66;77.92
66343;DHT22;53144;51.524;5.080;2023-02-28T05:29:56;1.69;77.61
66343;DHT22;53144;51.524;5.080;2023-02-28T05:32:22;1.64;77.86
66343;DHT22;53144;51.524;5.080;2023-02-28T05:34:47;1.64;76.95
66343;DHT22;53144;51.524;5.080;2023-02-28T05:37:13;1.66;77.60
66343;DHT22;53144;51.524;5.080;2023-02-28T05:39:41;1.63;77.52
66343;DHT22;53144;51.524;5.080;2023-02-28T05:42:06;1.73;76.93
66343;DHT22;53144;51.524;5.080;2023-02-28T05:44:32;1.70;76.91
66343;DHT22;53144;51.524;5.080;2023-02-28T05:46:57;1.70;76.28
66343;DHT22;53144;51.524;5.080;2023-02-28T05:49:22;1.73;76.71
66343;DHT22;53144;51.524;5.080;2023-02-28T05:51:48;1.71;76.60
66343;DHT22;53144;51.524;5.080;2023-02-28T05:54:13;1.76;75.68
66343;DHT22;53144;51.524;5.080;2023-02-28T05:56:39;1.66;75.86
66343;DHT22;53144;51.524;5.080;2023-02-28T05:59:06;1.66;76.20
66343;DHT22;53144;51.524;5.080;2023-02-28T06:04:00;1.70;75.40
66343;DHT22;53144;51.524;5.080;2023-02-28T06:06:26;1.79;74.82
66343;DHT22;53144;51.524;5.080;2023-02-28T06:08:52;1.73;75.39
66343;DHT22;53144;51.524;5.080;2023-02-28T06:11:17;1.73;74.98
66343;DHT22;53144;51.524;5.080;2023-02-28T06:13:45;1.77;75.45
66343;DHT22;53144;51.524;5.080;2023-02-28T06:16:10;1.77;75.68
66343;DHT22;53144;51.524;5.080;2023-02-28T06:18:36;1.84;75.34
66343;DHT22;53144;51.524;5.080;2023-02-28T06:21:02;1.81;75.69
66343;DHT22;53144;51.524;5.080;2023-02-28T06:23:27;1.77;75.87
66343;DHT22;53144;51.524;5.080;2023-02-28T06:25:52;1.76;76.00
66343;DHT22;53144;51.524;5.080;2023-02-28T06:28:18;1.77;76.38
66343;DHT22;53144;51.524;5.080;2023-02-28T06:30:44;1.89;75.87
66343;DHT22;53144;51.524;5.080;2023-02-28T06:33:09;1.84;76.12
66343;DHT22;53144;51.524;5.080;2023-02-28T06:35:35;1.86;76.57
66343;DHT22;53144;51.524;5.080;2023-02-28T06:38:00;1.86;76.89
66343;DHT22;53144;51.524;5.080;2023-02-28T06:40:26;1.81;77.22
66343;DHT22;53144;51.524;5.080;2023-02-28T06:42:51;1.94;76.64
66343;DHT22;53144;51.524;5.080;2023-02-28T06:45:17;1.94;76.88
66343;DHT22;53144;51.524;5.080;2023-02-28T06:47:42;1.93;76.82
66343;DHT22;53144;51.524;5.080;2023-02-28T06:50:12;1.93;76.62
66343;DHT22;53144;51.524;5.080;2023-02-28T06:52:38;1.94;76.77
66343;DHT22;53144;51.524;5.080;2023-02-28T06:55:05;1.97;76.70
66343;DHT22;53144;51.524;5.080;2023-02-28T06:57:34;2.07;76.48
66343;DHT22;53144;51.524;5.080;2023-02-28T07:00:02;2.04;76.35
66343;DHT22;53144;51.524;5.080;2023-02-28T07:02:28;2.07;76.59
66343;DHT22;53144;51.524;5.080;2023-02-28T07:04:53;2.08;76.90
66343;DHT22;53144;51.524;5.080;2023-02-28T07:07:19;2.17;76.49
66343;DHT22;53144;51.524;5.080;2023-02-28T07:09:44;2.20;76.89
66343;DHT22;53144;51.524;5.080;2023-02-28T07:12:11;2.17;76.63
66343;DHT22;53144;51.524;5.080;2023-02-28T07:14:37;2.21;76.53
66343;DHT22;53144;51.524;5.080;2023-02-28T07:17:02;2.22;74.67
66343;DHT22;53144;51.524;5.080;2023-02-28T07:19:28;2.22;74.73
66343;DHT22;53144;51.524;5.080;2023-02-28T07:21:54;2.34;74.53
66343;DHT22;53144;51.524;5.080;2023-02-28T07:24:19;2.24;74.72
66343;DHT22;53144;51.524;5.080;2023-02-28T07:26:44;2.37;74.20
66343;DHT22;53144;51.524;5.080;2023-02-28T07:29:10;2.42;73.69
66343;DHT22;53144;51.524;5.080;2023-02-28T07:31:35;2.41;72.99
66343;DHT22;53144;51.524;5.080;2023-02-28T07:34:01;2.49;72.10
66343;DHT22;53144;51.524;5.080;2023-02-28T07:36:27;2.58;71.85
66343;DHT22;53144;51.524;5.080;2023-02-28T07:38:52;2.59;71.47
66343;DHT22;53144;51.524;5.080;2023-02-28T07:41:20;2.65;71.38
66343;DHT22;53144;51.524;5.080;2023-02-28T07:43:46;2.73;71.63
66343;DHT22;53144;51.524;5.080;2023-02-28T07:46:14;2.79;71.02
66343;DHT22;53144;51.524;5.080;2023-02-28T07:48:43;2.92;71.40
66343;DHT22;53144;51.524;5.080;2023-02-28T07:51:09;2.87;69.19
66343;DHT22;53144;51.524;5.080;2023-02-28T07:53:34;2.86;68.88
66343;DHT22;53144;51.524;5.080;2023-02-28T07:56:01;2.95;68.56
66343;DHT22;53144;51.524;5.080;2023-02-28T07:58:28;2.97;69.06
66343;DHT22;53144;51.524;5.080;2023-02-28T08:00:54;2.90;68.81
66343;DHT22;53144;51.524;5.080;2023-02-28T08:03:21;2.93;68.74
66343;DHT22;53144;51.524;5.080;2023-02-28T08:05:47;3.03;68.28
66343;DHT22;53144;51.524;5.080;2023-02-28T08:08:14;3.07;68.34
66343;DHT22;53144;51.524;5.080;2023-02-28T08:10:39;3.14;66.74
66343;DHT22;53144;51.524;5.080;2023-02-28T08:13:05;3.18;66.15
66343;DHT22;53144;51.524;5.080;2023-02-28T08:15:30;3.14;65.86
66343;DHT22;53144;51.524;5.080;2023-02-28T08:17:56;3.16;65.67
66343;DHT22;53144;51.524;5.080;2023-02-28T08:20:22;3.18;64.13
66343;DHT22;53144;51.524;5.080;2023-02-28T08:22:48;3.21;63.81
66343;DHT22;53144;51.524;5.080;2023-02-28T08:25:14;3.28;65.50
66343;DHT22;53144;51.524;5.080;2023-02-28T08:27:40;3.31;63.71
66343;DHT22;53144;51.524;5.080;2023-02-28T08:30:06;3.41;63.47
66343;DHT22;53144;51.524;5.080;2023-02-28T08:32:32;3.54;63.77
66343;DHT22;53144;51.524;5.080;2023-02-28T08:34:58;3.69;63.74
66343;DHT22;53144;51.524;5.080;2023-02-28T08:37:24;3.95;63.47
66343;DHT22;53144;51.524;5.080;2023-02-28T08:39:49;4.05;58.88
66343;DHT22;53144;51.524;5.080;2023-02-28T08:42:15;4.05;59.55
66343;DHT22;53144;51.524;5.080;2023-02-28T08:44:40;3.93;59.02
66343;DHT22;53144;51.524;5.080;2023-02-28T08:47:06;3.89;59.56
66343;DHT22;53144;51.524;5.080;2023-02-28T08:49:32;3.87;60.97
66343;DHT22;53144;51.524;5.080;2023-02-28T08:51:57;3.90;57.89
66343;DHT22;53144;51.524;5.080;2023-02-28T08:54:23;3.97;60.16
66343;DHT22;53144;51.524;5.080;2023-02-28T08:56:49;3.97;60.16
66343;DHT22;53144;51.524;5.080;2023-02-28T08:59:14;4.09;60.39
66343;DHT22;53144;51.524;5.080;2023-02-28T09:01:40;3.92;58.07
66343;DHT22;53144;51.524;5.080;2023-02-28T09:04:07;3.96;57.68
66343;DHT22;53144;51.524;5.080;2023-02-28T09:06:34;3.92;58.43
66343;DHT22;53144;51.524;5.080;2023-02-28T09:08:59;4.07;59.79
66343;DHT22;53144;51.524;5.080;2023-02-28T09:11:29;4.13;59.04
66343;DHT22;53144;51.524;5.080;2023-02-28T09:13:55;4.02;59.34
66343;DHT22;53144;51.524;5.080;2023-02-28T09:16:21;3.99;58.23
66343;DHT22;53144;51.524;5.080;2023-02-28T09:18:47;3.92;59.26
66343;DHT22;53144;51.524;5.080;2023-02-28T09:21:15;3.89;59.00
66343;DHT22;53144;51.524;5.080;2023-02-28T09:23:45;3.68;55.93
66343;DHT22;53144;51.524;5.080;2023-02-28T09:26:29;3.74;54.45
66343;DHT22;53144;51.524;5.080;2023-02-28T09:28:54;3.68;54.64
66343;DHT22;53144;51.524;5.080;2023-02-28T09:31:25;3.66;54.45
66343;DHT22;53144;51.524;5.080;2023-02-28T09:33:54;3.79;55.20
66343;DHT22;53144;51.524;5.080;2023-02-28T09:36:20;3.85;53.70
66343;DHT22;53144;51.524;5.080;2023-02-28T09:38:49;3.90;54.89
66343;DHT22;53144;51.524;5.080;2023-02-28T09:41:26;3.96;52.83
66343;DHT22;53144;51.524;5.080;2023-02-28T09:43:59;4.10;51.63
66343;DHT22;53144;51.524;5.080;2023-02-28T09:46:38;4.16;52.60
66343;DHT22;53144;51.524;5.080;2023-02-28T09:49:18;4.40;53.71
66343;DHT22;53144;51.524;5.080;2023-02-28T09:54:24;4.72;51.76
66343;DHT22;53144;51.524;5.080;2023-02-28T09:57:36;5.02;52.26
66343;DHT22;53144;51.524;5.080;2023-02-28T10:00:05;5.26;49.81
66343;DHT22;53144;51.524;5.080;2023-02-28T10:05:14;5.51;48.29
66343;DHT22;53144;51.524;5.080;2023-02-28T10:10:24;5.20;49.61
66343;DHT22;53144;51.524;5.080;2023-02-28T10:12:53;5.39;47.26
66343;DHT22;53144;51.524;5.080;2023-02-28T10:15:22;5.43;47.37
66343;DHT22;53144;51.524;5.080;2023-02-28T10:17:53;5.63;47.84
66343;DHT22;53144;51.524;5.080;2023-02-28T10:20:21;5.57;48.31
66343;DHT22;53144;51.524;5.080;2023-02-28T10:23:09;6.04;46.59
66343;DHT22;53144;51.524;5.080;2023-02-28T10:25:38;6.43;45.54
66343;DHT22;53144;51.524;5.080;2023-02-28T10:28:12;6.33;46.04
66343;DHT22;53144;51.524;5.080;2023-02-28T10:30:42;6.66;43.94
66343;DHT22;53144;51.524;5.080;2023-02-28T10:33:34;6.70;44.63
66343;DHT22;53144;51.524;5.080;2023-02-28T10:36:01;6.95;44.14
66343;DHT22;53144;51.524;5.080;2023-02-28T10:38:33;7.29;43.78
66343;DHT22;53144;51.524;5.080;2023-02-28T10:41:10;7.77;42.06
66343;DHT22;53144;51.524;5.080;2023-02-28T10:43:37;7.73;39.12
66343;DHT22;53144;51.524;5.080;2023-02-28T10:51:00;8.08;41.43
66343;DHT22;53144;51.524;5.080;2023-02-28T10:53:45;8.80;40.02
66343;DHT22;53144;51.524;5.080;2023-02-28T11:04:02;9.21;41.00
66343;DHT22;53144;51.524;5.080;2023-02-28T11:06:34;9.35;37.30
66343;DHT22;53144;51.524;5.080;2023-02-28T11:09:02;9.42;37.62
66343;DHT22;53144;51.524;5.080;2023-02-28T11:11:30;9.30;37.98
66343;DHT22;53144;51.524;5.080;2023-02-28T11:14:03;9.47;37.66
66343;DHT22;53144;51.524;5.080;2023-02-28T11:16:37;9.82;37.35
66343;DHT22;53144;51.524;5.080;2023-02-28T11:19:05;9.77;37.59
66343;DHT22;53144;51.524;5.080;2023-02-28T11:21:36;9.26;37.09
66343;DHT22;53144;51.524;5.080;2023-02-28T11:26:42;9.41;37.37
66343;DHT22;53144;51.524;5.080;2023-02-28T11:29:20;9.88;37.74
66343;DHT22;53144;51.524;5.080;2023-02-28T11:34:36;9.93;36.37
66343;DHT22;53144;51.524;5.080;2023-02-28T11:37:05;9.11;39.92
66343;DHT22;53144;51.524;5.080;2023-02-28T11:39:32;9.55;37.09
66343;DHT22;53144;51.524;5.080;2023-02-28T11:50:33;9.82;36.24
66343;DHT22;53144;51.524;5.080;2023-02-28T11:55:49;9.89;36.21
66343;DHT22;53144;51.524;5.080;2023-02-28T12:04:00;10.26;37.68
66343;DHT22;53144;51.524;5.080;2023-02-28T12:14:15;10.33;37.65
66343;DHT22;53144;51.524;5.080;2023-02-28T12:17:09;10.17;37.44
66343;DHT22;53144;51.524;5.080;2023-02-28T12:20:05;10.82;36.89
66343;DHT22;53144;51.524;5.080;2023-02-28T12:27:47;9.35;37.49
66343;DHT22;53144;51.524;5.080;2023-02-28T12:30:41;9.06;39.11
66343;DHT22;53144;51.524;5.080;2023-02-28T12:33:13;8.04;41.41
66343;DHT22;53144;51.524;5.080;2023-02-28T12:38:17;6.80;45.07
66343;DHT22;53144;51.524;5.080;2023-02-28T12:40:52;6.87;43.83
66343;DHT22;53144;51.524;5.080;2023-02-28T12:43:21;6.66;45.06
66343;DHT22;53144;51.524;5.080;2023-02-28T12:45:54;6.49;46.04
66343;DHT22;53144;51.524;5.080;2023-02-28T12:48:58;6.40;47.21
66343;DHT22;53144;51.524;5.080;2023-02-28T12:51:25;6.44;44.92
66343;DHT22;53144;51.524;5.080;2023-02-28T12:56:45;8.25;42.78
66343;DHT22;53144;51.524;5.080;2023-02-28T12:59:21;8.56;41.07
66343;DHT22;53144;51.524;5.080;2023-02-28T13:01:52;8.86;41.30
66343;DHT22;53144;51.524;5.080;2023-02-28T13:04:43;9.42;40.01
66343;DHT22;53144;51.524;5.080;2023-02-28T13:09:58;9.45;40.06
66343;DHT22;53144;51.524;5.080;2023-02-28T13:12:25;9.99;40.57
66343;DHT22;53144;51.524;5.080;2023-02-28T13:15:04;9.99;36.72
66343;DHT22;53144;51.524;5.080;2023-02-28T13:17:30;10.38;36.81
66343;DHT22;53144;51.524;5.080;2023-02-28T13:19:56;9.95;37.08
66343;DHT22;53144;51.524;5.080;2023-02-28T13:24:59;9.54;39.21
66343;DHT22;53144;51.524;5.080;2023-02-28T13:27:37;9.72;37.43
66343;DHT22;53144;51.524;5.080;2023-02-28T13:33:24;9.01;39.32
66343;DHT22;53144;51.524;5.080;2023-02-28T13:46:32;8.83;39.20
66343;DHT22;53144;51.524;5.080;2023-02-28T13:49:18;9.14;39.81
66343;DHT22;53144;51.524;5.080;2023-02-28T13:51:47;9.67;39.90
66343;DHT22;53144;51.524;5.080;2023-02-28T14:05:34;9.62;37.88
66343;DHT22;53144;51.524;5.080;2023-02-28T14:08:11;9.23;39.86
66343;DHT22;53144;51.524;5.080;2023-02-28T14:10:44;9.28;39.47
66343;DHT22;53144;51.524;5.080;2023-02-28T14:13:43;8.80;40.84
66343;DHT22;53144;51.524;5.080;2023-02-28T14:16:23;8.66;41.01
66343;DHT22;53144;51.524;5.080;2023-02-28T14:18:51;8.22;40.29
66343;DHT22;53144;51.524;5.080;2023-02-28T14:21:29;8.42;42.08
66343;DHT22;53144;51.524;5.080;2023-02-28T14:32:27;7.66;44.00
66343;DHT22;53144;51.524;5.080;2023-02-28T14:38:04;7.41;44.55
66343;DHT22;53144;51.524;5.080;2023-02-28T14:40:35;7.29;43.61
66343;DHT22;53144;51.524;5.080;2023-02-28T14:43:04;7.53;43.76
66343;DHT22;53144;51.524;5.080;2023-02-28T14:45:32;7.32;45.53
66343;DHT22;53144;51.524;5.080;2023-02-28T14:47:58;7.50;44.30
66343;DHT22;53144;51.524;5.080;2023-02-28T14:50:33;7.14;43.72
66343;DHT22;53144;51.524;5.080;2023-02-28T14:52:59;6.92;44.56
66343;DHT22;53144;51.524;5.080;2023-02-28T14:55:30;6.95;45.51
66343;DHT22;53144;51.524;5.080;2023-02-28T14:57:59;6.83;46.18
66343;DHT22;53144;51.524;5.080;2023-02-28T15:00:33;6.83;46.23
66343;DHT22;53144;51.524;5.080;2023-02-28T15:03:00;6.80;44.51
66343;DHT22;53144;51.524;5.080;2023-02-28T15:05:32;6.92;44.76
66343;DHT22;53144;51.524;5.080;2023-02-28T15:08:13;6.79;45.26
66343;DHT22;53144;51.524;5.080;2023-02-28T15:10:42;6.69;45.50
66343;DHT22;53144;51.524;5.080;2023-02-28T15:13:13;6.52;48.03
66343;DHT22;53144;51.524;5.080;2023-02-28T15:18:15;6.30;45.63
66343;DHT22;53144;51.524;5.080;2023-02-28T15:20:42;6.25;45.39
66343;DHT22;53144;51.524;5.080;2023-02-28T15:23:08;6.13;47.77
66343;DHT22;53144;51.524;5.080;2023-02-28T15:25:34;6.16;47.46
66343;DHT22;53144;51.524;5.080;2023-02-28T15:28:00;6.18;47.06
66343;DHT22;53144;51.524;5.080;2023-02-28T15:30:30;6.06;48.88
66343;DHT22;53144;51.524;5.080;2023-02-28T15:33:18;6.08;48.93
66343;DHT22;53144;51.524;5.080;2023-02-28T15:35:44;6.01;48.35
66343;DHT22;53144;51.524;5.080;2023-02-28T15:38:26;5.97;48.55
66343;DHT22;53144;51.524;5.080;2023-02-28T15:40:57;5.87;47.86
66343;DHT22;53144;51.524;5.080;2023-02-28T15:43:30;5.74;47.75
66343;DHT22;53144;51.524;5.080;2023-02-28T15:45:59;5.75;47.76
66343;DHT22;53144;51.524;5.080;2023-02-28T15:48:55;5.77;48.82
66343;DHT22;53144;51.524;5.080;2023-02-28T15:51:36;5.75;49.60
66343;DHT22;53144;51.524;5.080;2023-02-28T15:54:06;5.67;48.69
66343;DHT22;53144;51.524;5.080;2023-02-28T15:56:43;5.68;49.83
66343;DHT22;53144;51.524;5.080;2023-02-28T15:59:17;5.73;49.48
66343;DHT22;53144;51.524;5.080;2023-02-28T16:01:43;5.70;47.74
66343;DHT22;53144;51.524;5.080;2023-02-28T16:04:19;5.60;47.67
66343;DHT22;53144;51.524;5.080;2023-02-28T16:09:14;5.44;49.19
66343;DHT22;53144;51.524;5.080;2023-02-28T16:11:43;5.39;50.14
66343;DHT22;53144;51.524;5.080;2023-02-28T16:14:16;5.50;49.11
66343;DHT22;53144;51.524;5.080;2023-02-28T16:16:44;5.46;49.53
66343;DHT22;53144;51.524;5.080;2023-02-28T16:19:10;5.50;49.27
66343;DHT22;53144;51.524;5.080;2023-02-28T16:21:35;5.44;48.42
66343;DHT22;53144;51.524;5.080;2023-02-28T16:24:01;5.33;48.92
66343;DHT22;53144;51.524;5.080;2023-02-28T16:26:27;5.36;49.97
66343;DHT22;53144;51.524;5.080;2023-02-28T16:28:54;5.32;50.14
66343;DHT22;53144;51.524;5.080;2023-02-28T16:31:20;5.24;51.87
66343;DHT22;53144;51.524;5.080;2023-02-28T16:33:46;5.16;50.55
66343;DHT22;53144;51.524;5.080;2023-02-28T16:36:17;5.16;51.88
66343;DHT22;53144;51.524;5.080;2023-02-28T16:38:43;5.00;53.50
66343;DHT22;53144;51.524;5.080;2023-02-28T16:41:17;4.93;53.47
66343;DHT22;53144;51.524;5.080;2023-02-28T16:43:45;4.91;53.31
66343;DHT22;53144;51.524;5.080;2023-02-28T16:46:12;4.84;52.90
66343;DHT22;53144;51.524;5.080;2023-02-28T16:48:38;4.82;51.96
66343;DHT22;53144;51.524;5.080;2023-02-28T16:51:04;4.85;53.54
66343;DHT22;53144;51.524;5.080;2023-02-28T16:53:30;4.76;52.84
66343;DHT22;53144;51.524;5.080;2023-02-28T16:55:56;4.69;53.58
66343;DHT22;53144;51.524;5.080;2023-02-28T16:58:22;4.61;53.42
66343;DHT22;53144;51.524;5.080;2023-02-28T17:00:50;4.50;54.21
66343;DHT22;53144;51.524;5.080;2023-02-28T17:03:27;4.40;55.37
66343;DHT22;53144;51.524;5.080;2023-02-28T17:05:53;4.36;54.75
66343;DHT22;53144;51.524;5.080;2023-02-28T17:08:19;4.38;53.75
66343;DHT22;53144;51.524;5.080;2023-02-28T17:10:44;4.32;54.12
66343;DHT22;53144;51.524;5.080;2023-02-28T17:13:10;4.32;54.32
66343;DHT22;53144;51.524;5.080;2023-02-28T17:15:36;4.34;53.82
66343;DHT22;53144;51.524;5.080;2023-02-28T17:18:03;4.29;53.94
66343;DHT22;53144;51.524;5.080;2023-02-28T17:20:28;4.17;54.43
66343;DHT22;53144;51.524;5.080;2023-02-28T17:22:54;4.05;55.19
66343;DHT22;53144;51.524;5.080;2023-02-28T17:25:20;4.00;54.42
66343;DHT22;53144;51.524;5.080;2023-02-28T17:27:46;4.05;54.58
66343;DHT22;53144;51.524;5.080;2023-02-28T17:30:16;4.02;55.04
66343;DHT22;53144;51.524;5.080;2023-02-28T17:32:43;3.99;54.97
66343;DHT22;53144;51.524;5.080;2023-02-28T17:35:09;3.95;55.34
66343;DHT22;53144;51.524;5.080;2023-02-28T17:37:34;3.86;55.29
66343;DHT22;53144;51.524;5.080;2023-02-28T17:40:00;3.76;56.18
66343;DHT22;53144;51.524;5.080;2023-02-28T17:42:25;3.69;56.27
66343;DHT22;53144;51.524;5.080;2023-02-28T17:44:50;3.81;54.93
66343;DHT22;53144;51.524;5.080;2023-02-28T17:47:16;3.66;56.09
66343;DHT22;53144;51.524;5.080;2023-02-28T17:49:41;3.59;56.98
66343;DHT22;53144;51.524;5.080;2023-02-28T17:52:07;3.52;57.50
66343;DHT22;53144;51.524;5.080;2023-02-28T17:54:33;3.41;57.57
66343;DHT22;53144;51.524;5.080;2023-02-28T17:56:58;3.35;58.50
66343;DHT22;53144;51.524;5.080;2023-02-28T17:59:24;3.21;58.25
66343;DHT22;53144;51.524;5.080;2023-02-28T18:01:49;3.14;59.04
66343;DHT22;53144;51.524;5.080;2023-02-28T18:04:14;3.00;58.94
66343;DHT22;53144;51.524;5.080;2023-02-28T18:06:42;2.95;59.67
66343;DHT22;53144;51.524;5.080;2023-02-28T18:09:18;2.90;60.01
66343;DHT22;53144;51.524;5.080;2023-02-28T18:11:43;2.86;61.08
66343;DHT22;53144;51.524;5.080;2023-02-28T18:14:14;2.83;60.88
66343;DHT22;53144;51.524;5.080;2023-02-28T18:16:41;2.87;62.63